Bangor (BGR/KBGR)

Map

Destinations

Information

Location
Bangor, Maine
Local Time
20:53 / 8:53 pm
GMT Time
01:53 / 1:53 am
Gates
Unassigned
No FAA reported delays
METAR KBGR 250053Z 17006KT 10SM SCT200 02/00 A2989 RMK AO2 SLP125 T00220000
TAF KBGR 242320Z 2500/2524 17007KT P6SM FEW200 FM251500 20011KT P6SM FEW250 FM252100 21007KT P6SM VCSH SCT250 FM252300 22005KT 5SM -RA BKN150